Airport View

Enter ICAO identifier to see the current METAR for that AWOS.

KFNL for example

KHIB 020411Z AUTO 00000KT 1 1/4SM BR CLR 13/12 A3010

2 Aug 2014 04:30

Frequency: 126.425

Phone: 218-263-8384

Other Area AWOS: KEVM - KCQM - KGPZ - KORB

TAF AMD KHIB 020409Z 0204/0224 00000KT 1 1/2SM BR SKC TEMPO 0209/0213 1/2SM FG BKN003 FM021900 23006KT P6SM VCTS BKN050CB